Airports Norway Tromsø Airport

Tromsø Airport (ENTC / TOS)

Facts about Tromsø Airport

Name Tromsø Airport
City Tromso
Country Norway
ICAO code ENTC
IATA code TOS
Elevation 9.4488 meters (31 feet)

Weather

METAR

Metar data retrieved Friday, 19 July 2024 at 23:25 UTC (12 minutes ago)

ENTC 192320Z VRB02KT 9999 OVC006 13/11 Q1017 RMK WIND 2600FT 25010KT

Live traffic

Navigraph Charts (account required)